Figari Sud-Corse Airport

LFKF · South Corsica, Corsica, Francja

Historia METAR LFKF · Figari Sud-Corse Airport

Poniżej widzisz METAR-y z ostatnich kilku dni. Wybierz rok, aby przeglądać starsze METAR-y, począwszy od roku 2007.

19 lipca 2024

Czas Kod Pogoda Temp. Widoczność Sufit Wiatr METAR/SPECI
12:00
V
30 °C 10 km+ - 200° 200° 11 kt METAR LFKF 191000Z AUTO 20011KT 170V240 CAVOK 30/22 Q1016 TEMPO 22015G25KT
11:30
V
30 °C 10 km+ - 190° 190° 10 kt METAR LFKF 190930Z AUTO 19010KT 170V230 CAVOK 30/22 Q1016 TEMPO 22015G25KT
11:00
V
30 °C 10 km+ - 200° 200° 9 kt METAR LFKF 190900Z AUTO 20009KT 170V240 CAVOK 30/19 Q1017 NOSIG
10:30
V
29 °C 10 km+ - 200° 200° 8 kt METAR LFKF 190830Z AUTO 20008KT 170V240 CAVOK 29/19 Q1017 BECMG 23015G25KT
10:00
V
29 °C 10 km+ - 210° 210° 7 kt METAR LFKF 190800Z AUTO 21007KT 170V250 CAVOK 29/21 Q1017 BECMG 23015G25KT
09:30
V
29 °C 10 km+ - 220° 220° 4 kt METAR LFKF 190730Z AUTO 22004KT 170V280 CAVOK 29/21 Q1017 BECMG 23015G25KT
09:00
V
27 °C 10 km+ - Var Var 3 kt METAR LFKF 190700Z AUTO VRB03KT CAVOK 27/20 Q1017 BECMG 23015G25KT
08:30
V
25 °C 10 km+ - Var Var 2 kt METAR LFKF 190630Z AUTO VRB02KT CAVOK 25/20 Q1017 BECMG 23015G25KT
08:00
V
22 °C 10 km+ - 360° 360° 0 kt METAR LFKF 190600Z AUTO 00000KT CAVOK 22/20 Q1017 BECMG 23015G25KT
07:30
V
20 °C 10 km+ - Var Var 1 kt METAR LFKF 190530Z AUTO VRB01KT CAVOK 20/19 Q1017 BECMG 23015G25KT
07:00
V
17 °C 10 km+ - Var Var 1 kt METAR LFKF 190500Z AUTO VRB01KT CAVOK 17/17 Q1017 NOSIG
06:30
V
16 °C 10 km+ - 080° 080° 1 kt METAR LFKF 190430Z AUTO 08001KT CAVOK 16/16 Q1017 NOSIG
06:00
V
16 °C 10 km+ - 020° 020° 3 kt METAR LFKF 190400Z AUTO 02003KT CAVOK 16/16 Q1017 NOSIG
05:30
I
16 °C 2,1 km - Var Var 2 kt METAR LFKF 190330Z AUTO VRB02KT 9999 2100 NSC 16/15 Q1017 NOSIG
05:00
V
16 °C 10 km+ - 360° 360° 0 kt METAR LFKF 190300Z AUTO 00000KT CAVOK 16/15 Q1016 NOSIG
04:30
V
17 °C 10 km+ - Var Var 1 kt METAR LFKF 190230Z AUTO VRB01KT CAVOK 17/16 Q1016 NOSIG
04:00
V
18 °C 10 km+ - 040° 040° 3 kt METAR LFKF 190200Z AUTO 04003KT CAVOK 18/17 Q1016 NOSIG
03:30
V
17 °C 10 km+ - 050° 050° 4 kt METAR LFKF 190130Z AUTO 05004KT CAVOK 17/16 Q1017 NOSIG
03:00
V
17 °C 10 km+ - 340° 340° 2 kt METAR LFKF 190100Z AUTO 34002KT CAVOK 17/17 Q1017 NOSIG
02:30
V
18 °C 10 km+ - Var Var 2 kt METAR LFKF 190030Z AUTO VRB02KT CAVOK 18/17 Q1017 NOSIG
02:00
V
19 °C 10 km+ - Var Var 2 kt METAR LFKF 190000Z AUTO VRB02KT CAVOK 19/18 Q1017 NOSIG
01:30
V
19 °C 10 km+ - 050° 050° 2 kt METAR LFKF 182330Z AUTO 05002KT CAVOK 19/18 Q1017 NOSIG
01:00
V
19 °C 10 km+ - 360° 360° 0 kt METAR LFKF 182300Z AUTO 00000KT CAVOK 19/18 Q1017 NOSIG
00:30
V
19 °C 10 km+ - 360° 360° 0 kt METAR LFKF 182230Z AUTO 00000KT CAVOK 19/18 Q1017 NOSIG
00:00
V
20 °C 10 km+ - 050° 050° 2 kt METAR LFKF 182200Z AUTO 05002KT CAVOK 20/18 Q1017 NOSIG

18 lipca 2024

Czas Kod Pogoda Temp. Widoczność Sufit Wiatr METAR/SPECI
23:30
V
20 °C 10 km+ - Var Var 1 kt METAR LFKF 182130Z AUTO VRB01KT CAVOK 20/19 Q1017 NOSIG
23:00
V
21 °C 10 km+ - Var Var 2 kt METAR LFKF 182100Z AUTO VRB02KT CAVOK 21/20 Q1017 NOSIG
22:30
V
22 °C 10 km+ - Var Var 3 kt METAR LFKF 182030Z AUTO VRB03KT CAVOK 22/20 Q1017 NOSIG
22:00
V
23 °C 10 km+ - Var Var 1 kt METAR LFKF 182000Z AUTO VRB01KT CAVOK 23/22 Q1017 NOSIG
21:30
V
23 °C 10 km+ - 170° 170° 3 kt METAR LFKF 181930Z AUTO 17003KT CAVOK 23/22 Q1017 NOSIG
21:00
V
24 °C 10 km+ - 180° 180° 4 kt METAR LFKF 181900Z AUTO 18004KT 140V230 9999 -RA NSC 24/22 Q1017 NOSIG
20:30
V
25 °C 10 km+ - 190° 190° 5 kt METAR LFKF 181830Z AUTO 19005KT 150V240 CAVOK 25/22 Q1017 NOSIG
20:00
V
26 °C 10 km+ - 200° 200° 7 kt METAR LFKF 181800Z AUTO 20007KT 170V240 CAVOK 26/21 Q1017 NOSIG
19:30
V
27 °C 10 km+ - 200° 200° 7 kt METAR LFKF 181730Z AUTO 20007KT 160V230 CAVOK 27/21 Q1017 NOSIG
19:00
V
28 °C 10 km+ - 190° 190° 7 kt METAR LFKF 181700Z AUTO 19007KT 160V220 CAVOK 28/21 Q1016 NOSIG
18:30
V
29 °C 10 km+ - 200° 200° 8 kt METAR LFKF 181630Z AUTO 20008KT 160V220 CAVOK 29/21 Q1016 NOSIG
18:00
V
30 °C 10 km+ - 200° 200° 8 kt METAR LFKF 181600Z AUTO 20008KT 170V230 CAVOK 30/20 Q1016 NOSIG
17:30
V
32 °C 10 km+ - 200° 200° 8 kt METAR LFKF 181530Z AUTO 20008KT 160V240 CAVOK 32/19 Q1016 NOSIG
17:00
V
32 °C 10 km+ - 200° 200° 10 kt METAR LFKF 181500Z AUTO 20010KT CAVOK 32/18 Q1017 NOSIG
16:30
V
34 °C 10 km+ - 190° 190° 10 kt METAR LFKF 181430Z AUTO 19010KT 160V220 CAVOK 34/18 Q1016 NOSIG
16:00
V
36 °C 10 km+ - 200° 200° 7 kt METAR LFKF 181400Z AUTO 20007KT 120V240 CAVOK 36/11 Q1017 NOSIG
15:30
V
35 °C 10 km+ - 200° 200° 7 kt METAR LFKF 181330Z AUTO 20007KT 140V250 CAVOK 35/07 Q1017 NOSIG
15:00
V
34 °C 10 km+ - 210° 210° 9 kt METAR LFKF 181300Z AUTO 21009KT 160V240 CAVOK 34/13 Q1017 NOSIG
14:30
V
33 °C 10 km+ - 230° 230° 8 kt METAR LFKF 181230Z AUTO 23008KT 150V280 CAVOK 33/11 Q1017 NOSIG
14:00
V
32 °C 10 km+ - 210° 210° 10 kt METAR LFKF 181200Z AUTO 21010KT 180V240 CAVOK 32/18 Q1017 NOSIG
13:30
V
32 °C 10 km+ - 210° 210° 8 kt METAR LFKF 181130Z AUTO 21008KT 170V240 CAVOK 32/18 Q1017 NOSIG
13:00
V
31 °C 10 km+ - 200° 200° 9 kt METAR LFKF 181100Z AUTO 20009KT CAVOK 31/19 Q1017 NOSIG
12:30
V
31 °C 10 km+ - 200° 200° 10 kt METAR LFKF 181030Z AUTO 20010KT 160V220 CAVOK 31/20 Q1017 NOSIG
12:00
V
30 °C 10 km+ - 210° 210° 10 kt METAR LFKF 181000Z AUTO 21010KT 180V240 CAVOK 30/20 Q1017 NOSIG
11:30
V
30 °C 10 km+ - 220° 220° 8 kt METAR LFKF 180930Z AUTO 22008KT 190V250 CAVOK 30/20 Q1017 NOSIG
11:00
V
30 °C 10 km+ - 210° 210° 6 kt METAR LFKF 180900Z AUTO 21006KT 170V270 CAVOK 30/19 Q1017 NOSIG
10:30
V
29 °C 10 km+ - 190° 190° 5 kt METAR LFKF 180830Z AUTO 19005KT 120V250 CAVOK 29/19 Q1018 BECMG 23015G25KT
10:00
V
28 °C 10 km+ - 200° 200° 6 kt METAR LFKF 180800Z AUTO 20006KT 170V250 CAVOK 28/19 Q1018 BECMG 23015G25KT
09:30
V
28 °C 10 km+ - 240° 240° 5 kt METAR LFKF 180730Z AUTO 24005KT 190V280 CAVOK 28/20 Q1017 BECMG 23015G25KT
09:00
V
27 °C 10 km+ - Var Var 2 kt METAR LFKF 180700Z AUTO VRB02KT CAVOK 27/20 Q1017 BECMG 23015G25KT
08:30
V
24 °C 10 km+ - Var Var 2 kt METAR LFKF 180630Z AUTO VRB02KT CAVOK 24/19 Q1017 BECMG 23015G25KT
08:00
V
22 °C 10 km+ - Var Var 1 kt METAR LFKF 180600Z AUTO VRB01KT CAVOK 22/19 Q1017 NOSIG
07:30
V
19 °C 10 km+ - 360° 360° 0 kt METAR LFKF 180530Z AUTO 00000KT CAVOK 19/17 Q1017 NOSIG
07:00
V
17 °C 10 km+ - 040° 040° 4 kt METAR LFKF 180500Z AUTO 04004KT CAVOK 17/17 Q1017 NOSIG
06:30
V
15 °C 10 km+ - 050° 050° 3 kt METAR LFKF 180430Z AUTO 05003KT CAVOK 15/14 Q1017 NOSIG
06:00
V
15 °C 10 km+ - 040° 040° 4 kt METAR LFKF 180400Z AUTO 04004KT CAVOK 15/15 Q1016 NOSIG
05:30
V
15 °C 10 km+ - 050° 050° 2 kt METAR LFKF 180330Z AUTO 05002KT CAVOK 15/14 Q1016 NOSIG
05:00
V
15 °C 10 km+ - 040° 040° 3 kt METAR LFKF 180300Z AUTO 04003KT CAVOK 15/14 Q1016 NOSIG
04:30
V
16 °C 10 km+ - Var Var 1 kt METAR LFKF 180230Z AUTO VRB01KT CAVOK 16/15 Q1016
04:00
V
16 °C 10 km+ - Var Var 2 kt METAR LFKF 180200Z AUTO VRB02KT CAVOK 16/15 Q1016
03:30
V
17 °C 10 km+ - 030° 030° 4 kt METAR LFKF 180130Z AUTO 03004KT CAVOK 17/16 Q1016
03:00
V
17 °C 10 km+ - 030° 030° 3 kt METAR LFKF 180100Z AUTO 03003KT CAVOK 17/16 Q1016
02:30
V
17 °C 10 km+ - 030° 030° 3 kt METAR LFKF 180030Z AUTO 03003KT CAVOK 17/16 Q1016
02:00
V
18 °C 10 km+ - Var Var 1 kt METAR LFKF 180000Z AUTO VRB01KT CAVOK 18/17 Q1016
01:30
V
18 °C 10 km+ - Var Var 1 kt METAR LFKF 172330Z AUTO VRB01KT CAVOK 18/16 Q1016
01:00
V
19 °C 10 km+ - Var Var 3 kt METAR LFKF 172300Z AUTO VRB03KT CAVOK 19/17 Q1016
00:30
V
19 °C 10 km+ - Var Var 3 kt METAR LFKF 172230Z AUTO VRB03KT CAVOK 19/16 Q1016
00:00
V
19 °C 10 km+ - 360° 360° 0 kt METAR LFKF 172200Z AUTO 00000KT CAVOK 19/16 Q1016

17 lipca 2024

Czas Kod Pogoda Temp. Widoczność Sufit Wiatr METAR/SPECI
23:30
V
21 °C 10 km+ - Var Var 2 kt METAR LFKF 172130Z AUTO VRB02KT CAVOK 21/17 Q1016 NOSIG
23:00
V
21 °C 10 km+ - 140° 140° 3 kt METAR LFKF 172100Z AUTO 14003KT 110V180 CAVOK 21/18 Q1016 NOSIG
22:30
V
22 °C 10 km+ - 020° 020° 2 kt METAR LFKF 172030Z AUTO 02002KT CAVOK 22/18 Q1016 NOSIG
22:00
V
23 °C 10 km+ - Var Var 2 kt METAR LFKF 172000Z AUTO VRB02KT CAVOK 23/18 Q1016 NOSIG
21:30
V
25 °C 10 km+ - Var Var 3 kt METAR LFKF 171930Z AUTO VRB03KT CAVOK 25/18 Q1016 NOSIG
21:00
V
27 °C 10 km+ - Var Var 2 kt METAR LFKF 171900Z AUTO VRB02KT CAVOK 27/19 Q1015 NOSIG
20:30
V
30 °C 10 km+ - 260° 260° 6 kt METAR LFKF 171830Z AUTO 26006KT 230V290 CAVOK 30/14 Q1015 NOSIG
20:00
V
32 °C 10 km+ - 270° 270° 8 kt METAR LFKF 171800Z AUTO 27008KT CAVOK 32/15 Q1015 TEMPO 25015G25KT
19:30
V
32 °C 10 km+ - 250° 250° 12 kt METAR LFKF 171730Z AUTO 25012KT CAVOK 32/16 Q1014 TEMPO 25015G25KT
19:00
V
33 °C 10 km+ - 250° 250° 14 kt METAR LFKF 171700Z AUTO 25014KT CAVOK 33/16 Q1014 BECMG 25015G25KT
18:30
V
34 °C 10 km+ - 260° 260° 15 kt METAR LFKF 171630Z AUTO 26015KT CAVOK 34/17 Q1014 BECMG 25015G25KT
18:00
V
34 °C 10 km+ - 260° 260° 15 kt METAR LFKF 171600Z AUTO 26015KT CAVOK 34/18 Q1014 BECMG 25015G25KT
17:30
V
35 °C 10 km+ - 250° 250° 15 kt METAR LFKF 171530Z AUTO 25015KT CAVOK 35/17 Q1014 BECMG 25015G25KT
17:00
V
34 °C 10 km+ - 230° 230° 14 kt METAR LFKF 171500Z AUTO 23014KT 200V260 CAVOK 34/19 Q1014 BECMG 25015G25KT
16:30
V
35 °C 10 km+ - 250° 250° 15 kt METAR LFKF 171430Z AUTO 25015KT CAVOK 35/19 Q1014 BECMG 25015G25KT
16:00
V
34 °C 10 km+ - 230° 230° 16 kt METAR LFKF 171400Z AUTO 23016KT CAVOK 34/21 Q1015 BECMG 25015G25KT
15:30
V
34 °C 10 km+ - 240° 240° 18 kt METAR LFKF 171330Z AUTO 24018KT CAVOK 34/20 Q1015 BECMG 25015G25KT
15:00
V
34 °C 10 km+ - 240° 240° 18 kt METAR LFKF 171300Z AUTO 24018KT CAVOK 34/19 Q1015 BECMG 25015G25KT
14:30
V
34 °C 10 km+ - 240° 240° 18 kt METAR LFKF 171230Z AUTO 24018KT CAVOK 34/19 Q1015 BECMG 25015G25KT
14:00
V
34 °C 10 km+ - 230° 230° 17 kt METAR LFKF 171200Z AUTO 23017KT CAVOK 34/18 Q1015 BECMG 25015G25KT
13:30
V
34 °C 10 km+ - 230° 230° 17 kt METAR LFKF 171130Z AUTO 23017KT CAVOK 34/19 Q1015 BECMG 25015G25KT
13:00
V
33 °C 10 km+ - 230° 230° 17 kt METAR LFKF 171100Z AUTO 23017KT CAVOK 33/21 Q1015 BECMG 25015G25KT
12:30
V
32 °C 10 km+ - 240° 240° 17 kt METAR LFKF 171030Z AUTO 24017KT CAVOK 32/22 Q1015 BECMG 25015G25KT
12:00
V
31 °C 10 km+ - 240° 240° 18 kt METAR LFKF 171000Z AUTO 24018KT CAVOK 31/22 Q1015 BECMG 25015G25KT
11:30
V
32 °C 10 km+ - 250° 250° 17 kt METAR LFKF 170930Z AUTO 25017KT CAVOK 32/23 Q1015 BECMG 25015G25KT
11:00
V
31 °C 10 km+ - 230° 230° 13 kt METAR LFKF 170900Z AUTO 23013KT 150V250 CAVOK 31/23 Q1015 BECMG 25015G25KT
10:30
V
29 °C 10 km+ - 200° 200° 8 kt METAR LFKF 170830Z AUTO 20008KT 160V250 CAVOK 29/23 Q1015 BECMG 25015G25KT
10:00
V
29 °C 10 km+ - 190° 190° 7 kt METAR LFKF 170800Z AUTO 19007KT 130V240 CAVOK 29/22 Q1015 NOSIG
09:30
V
29 °C 10 km+ - Var Var 3 kt METAR LFKF 170730Z AUTO VRB03KT CAVOK 29/22 Q1015 NOSIG
09:00
V
27 °C 10 km+ - 230° 230° 3 kt METAR LFKF 170700Z AUTO 23003KT 160V270 CAVOK 27/22 Q1015 NOSIG
08:30
V
25 °C 10 km+ - 200° 200° 4 kt METAR LFKF 170630Z AUTO 20004KT 160V230 CAVOK 25/22 Q1015 NOSIG
08:00
V
23 °C 10 km+ - Var Var 2 kt METAR LFKF 170600Z AUTO VRB02KT CAVOK 23/21 Q1015 BECMG 24012KT
Zgłoś zmianę